Time;durP1;ratioP1;P1;durP2;ratioP2;P2;SDS_P1;SDS_P2;PMS_P1;PMS_P2;Temp;Humidity;BMP_temperature;BMP_pressure;BME280_temperature;BME280_humidity;BME280_pressure;Samples;Min_cycle;Max_cycle;Signal;HPM_P1;HPM_P2
2021/04/01 00:01:14;;;;;;;22.10;9.25;;;14.50;99.60;;;;;;5017586;28;20552;-66
2021/04/01 00:03:45;;;;;;;24.08;9.98;;;14.60;99.10;;;;;;5018039;28;20478;-66
2021/04/01 00:06:12;;;;;;;32.83;10.27;;;14.60;98.20;;;;;;5014405;28;20046;-66
2021/04/01 00:08:39;;;;;;;35.20;11.35;;;14.70;97.20;;;;;;5016865;28;20124;-66
2021/04/01 00:11:05;;;;;;;26.50;10.30;;;14.70;96.90;;;;;;5017550;28;20098;-66
2021/04/01 00:13:30;;;;;;;28.27;9.32;;;14.60;97.50;;;;;;5019413;28;20180;-66
2021/04/01 00:15:59;;;;;;;29.38;10.90;;;14.60;98.10;;;;;;5016785;28;20430;-66
2021/04/01 00:18:25;;;;;;;27.85;10.20;;;14.60;97.70;;;;;;5020161;28;20459;-66
2021/04/01 00:20:51;;;;;;;26.25;10.02;;;14.70;97.50;;;;;;5010468;28;20045;-66
2021/04/01 00:23:17;;;;;;;30.00;9.90;;;14.60;98.20;;;;;;5017989;28;20033;-66
2021/04/01 00:25:42;;;;;;;33.13;11.82;;;14.60;98.60;;;;;;5017795;28;20487;-66
2021/04/01 00:28:08;;;;;;;29.13;11.88;;;14.50;98.40;;;;;;5017849;28;20037;-66
2021/04/01 00:30:34;;;;;;;27.90;9.50;;;14.50;98.60;;;;;;5021182;28;20033;-66
2021/04/01 00:32:59;;;;;;;29.20;11.10;;;14.50;98.80;;;;;;5020904;28;20491;-66
2021/04/01 00:35:25;;;;;;;29.92;10.90;;;14.50;98.30;;;;;;5023540;28;20505;-66
2021/04/01 00:37:50;;;;;;;30.30;11.45;;;14.50;98.10;;;;;;5014380;28;20035;-66
2021/04/01 00:40:18;;;;;;;28.70;10.50;;;14.50;98.00;;;;;;5022559;28;20053;-66
2021/04/01 00:42:44;;;;;;;31.15;11.13;;;14.50;97.60;;;;;;5019339;28;20491;-66
2021/04/01 00:45:12;;;;;;;31.60;12.65;;;14.50;97.00;;;;;;5019277;28;20033;-66
2021/04/01 00:47:40;;;;;;;27.88;10.48;;;14.50;97.60;;;;;;5018702;28;20145;-66
2021/04/01 00:50:10;;;;;;;29.38;11.95;;;14.50;97.80;;;;;;5021378;28;20163;-66
2021/04/01 00:52:36;;;;;;;29.25;11.45;;;14.40;97.80;;;;;;5021091;28;20026;-66
2021/04/01 00:55:03;;;;;;;32.78;11.55;;;14.40;98.40;;;;;;5020966;28;20390;-67
2021/04/01 00:57:29;;;;;;;29.25;11.30;;;14.40;98.80;;;;;;5021819;28;20486;-66
2021/04/01 00:59:55;;;;;;;35.50;12.52;;;14.40;98.50;;;;;;5020219;28;20384;-66
2021/04/01 01:02:21;;;;;;;30.65;11.38;;;14.40;98.30;;;;;;5023780;28;20030;-66
2021/04/01 01:04:47;;;;;;;33.88;12.05;;;14.40;98.30;;;;;;5016904;28;20038;-66
2021/04/01 01:07:13;;;;;;;31.33;11.35;;;14.40;97.90;;;;;;5021311;28;20032;-65
2021/04/01 01:09:39;;;;;;;31.48;12.32;;;14.40;98.20;;;;;;5017112;28;20029;-66
2021/04/01 01:12:05;;;;;;;35.40;12.15;;;14.40;97.90;;;;;;5010626;28;20030;-66
2021/04/01 01:14:30;;;;;;;31.45;12.52;;;14.40;98.00;;;;;;5019781;28;20117;-66
2021/04/01 01:16:56;;;;;;;36.35;12.50;;;14.40;97.80;;;;;;5016318;28;20125;-66
2021/04/01 01:19:21;;;;;;;35.85;12.52;;;14.40;98.20;;;;;;5022373;28;20410;-66
2021/04/01 01:21:47;;;;;;;34.40;12.63;;;14.40;98.20;;;;;;5017791;28;20037;-66
2021/04/01 01:24:16;;;;;;;37.40;12.65;;;14.40;98.70;;;;;;5020339;28;20083;-66
2021/04/01 01:26:44;;;;;;;36.03;12.65;;;14.40;98.30;;;;;;5016865;28;20038;-66
2021/04/01 01:29:10;;;;;;;32.00;12.65;;;14.50;97.90;;;;;;5016946;28;20080;-66
2021/04/01 01:31:49;;;;;;;35.63;13.35;;;14.60;97.70;;;;;;5018673;28;20129;-66
2021/04/01 01:34:15;;;;;;;31.45;12.25;;;14.60;97.60;;;;;;5017153;28;20096;-65
2021/04/01 01:36:41;;;;;;;34.05;14.25;;;14.60;97.80;;;;;;5021792;28;20632;-67
2021/04/01 01:39:06;;;;;;;32.58;12.45;;;14.60;97.90;;;;;;5018115;28;20073;-66
2021/04/01 01:41:32;;;;;;;32.20;12.95;;;14.50;98.40;;;;;;5017798;28;20092;-66
2021/04/01 01:43:58;;;;;;;38.58;12.60;;;14.50;98.70;;;;;;5019603;28;20037;-66
2021/04/01 01:46:24;;;;;;;35.70;12.00;;;14.50;98.90;;;;;;5017636;28;20033;-67
2021/04/01 01:48:49;;;;;;;28.90;11.93;;;14.50;99.10;;;;;;5016417;28;20076;-66
2021/04/01 01:51:15;;;;;;;35.53;12.65;;;14.40;99.10;;;;;;5022475;28;20037;-66
2021/04/01 01:53:41;;;;;;;32.15;13.00;;;14.40;98.80;;;;;;5018798;28;20045;-66
2021/04/01 01:56:06;;;;;;;39.05;13.35;;;14.30;98.70;;;;;;5021306;28;20038;-66
2021/04/01 01:58:33;;;;;;;31.55;12.00;;;14.20;99.00;;;;;;5018289;28;20039;-67
2021/04/01 02:00:59;;;;;;;33.08;12.07;;;14.20;99.30;;;;;;5016678;28;20026;-66
2021/04/01 02:03:25;;;;;;;33.13;12.40;;;14.10;99.50;;;;;;5020712;28;20124;-65
2021/04/01 02:05:51;;;;;;;32.55;11.75;;;13.90;99.80;;;;;;5019742;28;20069;-66
2021/04/01 02:08:17;;;;;;;37.17;13.48;;;13.90;99.90;;;;;;5021201;28;20037;-66
2021/04/01 02:10:49;;;;;;;29.65;11.10;;;13.80;99.90;;;;;;5017131;28;20380;-66
2021/04/01 02:13:24;;;;;;;31.67;11.90;;;13.80;99.90;;;;;;5015158;28;20121;-65
2021/04/01 02:15:54;;;;;;;36.03;12.85;;;13.70;99.90;;;;;;5014546;28;20034;-65
2021/04/01 02:18:26;;;;;;;45.47;14.50;;;13.60;99.90;;;;;;5020533;28;20049;-66
2021/04/01 02:20:53;;;;;;;36.50;12.25;;;13.50;99.90;;;;;;5019378;28;20352;-66
2021/04/01 02:23:30;;;;;;;33.67;12.40;;;13.40;99.90;;;;;;5021974;28;20426;-66
2021/04/01 02:25:58;;;;;;;34.45;12.40;;;13.40;99.90;;;;;;5019712;28;20030;-66
2021/04/01 02:28:27;;;;;;;35.42;12.60;;;13.30;99.90;;;;;;5020753;28;20448;-65
2021/04/01 02:30:55;;;;;;;36.90;12.80;;;13.20;99.90;;;;;;5016016;28;20491;-65
2021/04/01 02:33:23;;;;;;;33.42;12.13;;;13.20;99.90;;;;;;5021734;28;20041;-65
2021/04/01 02:35:50;;;;;;;35.30;12.40;;;13.10;99.90;;;;;;5014546;28;20084;-65
2021/04/01 02:38:15;;;;;;;33.63;13.35;;;13.00;99.90;;;;;;5022120;28;20034;-65
2021/04/01 02:40:41;;;;;;;39.95;12.98;;;13.00;99.90;;;;;;5020589;28;20026;-65
2021/04/01 02:43:09;;;;;;;33.25;12.57;;;12.90;99.90;;;;;;5019334;28;20033;-65
2021/04/01 02:45:34;;;;;;;38.67;12.15;;;12.80;99.90;;;;;;5017281;28;20034;-66
2021/04/01 02:48:00;;;;;;;41.15;13.10;;;12.70;99.90;;;;;;5018867;28;20359;-65
2021/04/01 02:50:25;;;;;;;39.20;13.07;;;12.80;99.90;;;;;;5020605;28;20033;-65
2021/04/01 02:52:51;;;;;;;37.13;12.25;;;12.80;99.90;;;;;;5019173;28;20030;-66
2021/04/01 02:55:18;;;;;;;38.58;12.60;;;12.80;99.90;;;;;;5021992;28;20421;-66
2021/04/01 02:57:44;;;;;;;38.92;12.55;;;12.80;99.90;;;;;;5016712;28;20045;-65
2021/04/01 03:00:14;;;;;;;36.70;12.52;;;12.80;99.90;;;;;;5014937;28;20041;-65
2021/04/01 03:02:44;;;;;;;39.70;13.10;;;12.80;99.90;;;;;;5013402;28;20392;-65
2021/04/01 03:05:11;;;;;;;38.42;13.00;;;12.80;99.90;;;;;;5020086;28;20037;-66
2021/04/01 03:07:38;;;;;;;38.42;13.38;;;12.80;99.90;;;;;;5021459;28;20490;-65
2021/04/01 03:10:05;;;;;;;39.45;12.77;;;12.80;99.90;;;;;;5019211;28;20112;-65
2021/04/01 03:12:31;;;;;;;47.55;14.80;;;12.80;99.90;;;;;;5018240;28;20033;-65
2021/04/01 03:14:56;;;;;;;38.17;13.07;;;12.80;99.90;;;;;;5019118;28;20579;-66
2021/04/01 03:17:22;;;;;;;39.03;11.95;;;12.80;99.90;;;;;;5018624;28;20037;-66
2021/04/01 03:19:48;;;;;;;46.90;14.13;;;12.70;99.90;;;;;;5018249;28;20121;-65
2021/04/01 03:22:13;;;;;;;40.92;14.00;;;12.70;99.90;;;;;;5019506;28;20149;-65
2021/04/01 03:24:39;;;;;;;44.47;15.05;;;12.70;99.90;;;;;;5018400;28;20045;-66
2021/04/01 03:27:04;;;;;;;40.55;13.63;;;12.70;99.90;;;;;;5028958;28;20051;-67
2021/04/01 03:29:30;;;;;;;43.75;13.30;;;12.80;99.90;;;;;;5034859;28;20097;-66
2021/04/01 03:31:56;;;;;;;37.20;12.20;;;12.80;99.90;;;;;;5034666;28;20030;-67
2021/04/01 03:34:21;;;;;;;45.60;14.10;;;12.70;99.90;;;;;;5031379;28;20124;-65
2021/04/01 03:36:49;;;;;;;54.70;14.57;;;12.70;99.90;;;;;;5022174;28;20466;-66
2021/04/01 03:39:15;;;;;;;41.33;13.20;;;12.70;99.90;;;;;;5017184;28;20064;-66
2021/04/01 03:41:40;;;;;;;41.83;12.13;;;12.70;99.90;;;;;;5021774;28;20037;-65
2021/04/01 03:44:06;;;;;;;49.42;13.57;;;12.70;99.90;;;;;;5017810;28;20026;-66
2021/04/01 03:46:32;;;;;;;44.35;14.45;;;12.60;99.90;;;;;;5020306;28;20438;-65
2021/04/01 03:48:57;;;;;;;36.25;12.57;;;12.50;99.90;;;;;;5017686;28;20029;-67
2021/04/01 03:51:23;;;;;;;45.72;12.77;;;12.50;99.90;;;;;;5013783;28;20598;-66
2021/04/01 03:53:49;;;;;;;43.00;14.68;;;12.50;99.90;;;;;;5019905;28;20421;-66
2021/04/01 03:56:14;;;;;;;51.85;13.35;;;12.40;99.90;;;;;;5017255;28;20402;-66
2021/04/01 03:59:02;;;;;;;47.85;14.68;;;12.50;99.90;;;;;;5021406;28;20076;-67
2021/04/01 04:01:48;;;;;;;41.80;12.63;;;12.40;99.90;;;;;;4997131;28;20035;-66
2021/04/01 04:12:35;;;;;;;48.78;15.15;;;12.40;99.90;;;;;;5000134;28;20151;-66
2021/04/01 04:15:16;;;;;;;48.15;14.90;;;12.30;99.90;;;;;;5004887;28;20038;-66
2021/04/01 04:17:42;;;;;;;41.00;13.00;;;12.20;99.90;;;;;;5020228;28;20112;-66
2021/04/01 04:20:09;;;;;;;36.28;12.18;;;12.10;99.90;;;;;;5024156;28;20129;-66
2021/04/01 04:22:35;;;;;;;47.05;13.77;;;12.10;99.90;;;;;;5008898;28;20045;-66
2021/04/01 04:25:02;;;;;;;38.60;12.50;;;12.00;99.90;;;;;;5004656;28;20132;-66
2021/04/01 04:30:12;;;;;;;47.83;15.07;;;12.00;99.90;;;;;;5000533;28;20077;-66
2021/04/01 04:32:38;;;;;;;45.97;13.35;;;11.90;99.90;;;;;;5003295;28;20037;-66
2021/04/01 04:35:04;;;;;;;45.17;14.43;;;11.90;99.90;;;;;;5003714;28;20030;-66
2021/04/01 04:37:30;;;;;;;41.63;12.85;;;11.80;99.90;;;;;;5000393;28;20120;-66
2021/04/01 04:39:55;;;;;;;43.95;14.10;;;11.80;99.90;;;;;;4998077;28;20636;-66
2021/04/01 04:42:21;;;;;;;41.85;12.73;;;11.70;99.90;;;;;;4996248;28;20130;-66
2021/04/01 04:44:46;;;;;;;48.33;14.18;;;11.60;99.90;;;;;;4998957;28;20042;-66
2021/04/01 04:47:12;;;;;;;52.22;15.35;;;11.60;99.90;;;;;;5001945;28;20038;-66
2021/04/01 04:49:38;;;;;;;43.00;13.32;;;11.60;99.90;;;;;;4998743;28;20109;-66
2021/04/01 04:52:04;;;;;;;40.40;13.32;;;11.60;99.90;;;;;;5001798;28;20054;-66
2021/04/01 04:54:32;;;;;;;48.80;13.55;;;11.50;99.90;;;;;;5005180;28;20038;-66
2021/04/01 04:57:02;;;;;;;52.75;14.68;;;11.50;99.90;;;;;;5002382;28;20061;-66
2021/04/01 04:59:35;;;;;;;55.90;16.00;;;11.40;99.90;;;;;;5005495;28;20128;-67
2021/04/01 05:04:48;;;;;;;52.38;15.85;;;11.40;99.90;;;;;;4998653;28;20080;-67
2021/04/01 05:07:13;;;;;;;48.15;15.15;;;11.40;99.90;;;;;;5000434;28;20042;-66
2021/04/01 05:09:39;;;;;;;53.17;14.20;;;11.40;99.90;;;;;;5004865;28;20499;-66
2021/04/01 05:12:05;;;;;;;47.78;14.65;;;11.30;99.90;;;;;;5001465;28;20398;-66
2021/04/01 05:14:31;;;;;;;49.17;15.95;;;11.30;99.90;;;;;;5003969;28;20510;-67
2021/04/01 05:16:56;;;;;;;52.05;16.83;;;11.30;99.90;;;;;;5004076;28;20113;-66
2021/04/01 05:19:23;;;;;;;60.72;17.27;;;11.40;99.90;;;;;;5003604;28;20037;-66
2021/04/01 05:24:18;;;;;;;50.92;16.20;;;11.30;99.90;;;;;;5003211;28;20036;-66
2021/04/01 05:29:28;;;;;;;55.47;17.90;;;11.30;99.90;;;;;;5004124;28;20040;-66
2021/04/01 05:31:54;;;;;;;57.00;15.95;;;11.30;99.90;;;;;;5001962;28;20548;-66
2021/04/01 05:34:21;;;;;;;61.13;16.83;;;11.40;99.90;;;;;;5000345;28;20038;-66
2021/04/01 05:36:46;;;;;;;61.65;17.40;;;11.40;99.90;;;;;;4999621;28;20096;-66
2021/04/01 05:42:10;;;;;;;55.35;18.15;;;11.40;99.90;;;;;;4969275;28;20062;-66
2021/04/01 05:44:42;;;;;;;61.38;17.88;;;11.40;99.90;;;;;;5000407;28;20053;-66
2021/04/01 05:47:17;;;;;;;61.90;17.85;;;11.50;99.90;;;;;;5001792;28;20038;-66
2021/04/01 05:49:54;;;;;;;65.47;18.83;;;11.50;99.90;;;;;;5003482;28;20129;-66
2021/04/01 06:05:48;;;;;;;78.20;27.48;;;12.30;99.90;;;;;;5003478;28;20029;-66
2021/04/01 06:08:18;;;;;;;71.88;26.50;;;12.40;99.90;;;;;;5002269;28;20026;-66
2021/04/01 06:10:44;;;;;;;78.53;27.05;;;12.40;99.90;;;;;;5001966;28;20029;-66
2021/04/01 06:13:13;;;;;;;83.93;29.05;;;12.50;99.90;;;;;;5002487;28;20761;-67
2021/04/01 06:15:46;;;;;;;84.30;29.83;;;12.60;99.90;;;;;;5000627;28;20110;-66
2021/04/01 06:18:14;;;;;;;72.43;28.50;;;12.70;99.90;;;;;;5001492;28;20045;-67
2021/04/01 06:20:42;;;;;;;80.63;29.38;;;12.70;99.90;;;;;;5002045;28;20038;-66
2021/04/01 06:23:10;;;;;;;73.93;28.45;;;12.40;99.90;;;;;;4999428;28;20085;-65
2021/04/01 06:25:37;;;;;;;71.15;28.13;;;12.40;99.90;;;;;;5001555;28;20030;-65
2021/04/01 06:28:07;;;;;;;81.35;30.45;;;12.40;99.90;;;;;;5002892;28;20096;-66
2021/04/01 06:30:57;;;;;;;76.63;28.40;;;12.30;99.90;;;;;;4999824;28;20058;-65
2021/04/01 06:33:25;;;;;;;81.72;30.58;;;12.40;99.90;;;;;;4999821;28;20030;-66
2021/04/01 06:36:00;;;;;;;73.65;28.08;;;12.60;99.90;;;;;;5002279;28;20033;-66
2021/04/01 06:38:35;;;;;;;73.72;27.00;;;12.80;99.90;;;;;;4998336;28;20042;-65
2021/04/01 06:41:04;;;;;;;75.00;29.27;;;12.90;99.90;;;;;;4999523;28;20034;-66
2021/04/01 06:43:58;;;;;;;77.28;29.67;;;13.10;99.90;;;;;;4996217;28;20023;-66
2021/04/01 06:46:32;;;;;;;80.60;30.02;;;13.30;99.90;;;;;;5001453;28;20062;-66
2021/04/01 06:56:59;;;;;;;71.72;29.42;;;12.90;99.90;;;;;;5001469;28;20404;-67
2021/04/01 06:59:48;;;;;;;84.00;31.30;;;13.00;99.90;;;;;;4999895;28;20042;-64
2021/04/01 07:02:23;;;;;;;76.15;31.02;;;13.00;99.90;;;;;;5003927;28;20116;-67
2021/04/01 07:04:54;;;;;;;83.50;31.20;;;12.60;99.90;;;;;;5001985;28;20085;-68
2021/04/01 07:07:22;;;;;;;80.53;34.22;;;12.60;99.90;;;;;;5003006;28;20103;-65
2021/04/01 07:12:45;;;;;;;86.80;32.55;;;12.40;99.90;;;;;;5001599;28;20093;-70
2021/04/01 07:15:20;;;;;;;83.82;34.08;;;12.40;99.90;;;;;;5005659;28;20037;-67
2021/04/01 07:17:54;;;;;;;91.07;35.00;;;12.30;99.90;;;;;;5000546;28;20515;-68
2021/04/01 07:20:53;;;;;;;87.45;35.22;;;12.30;99.90;;;;;;4999169;28;20054;-67
2021/04/01 07:32:19;;;;;;;83.75;32.08;;;12.50;99.90;;;;;;4994810;28;20109;-67
2021/04/01 07:49:03;;;;;;;77.55;29.85;;;12.50;99.90;;;;;;5001491;28;20387;-68
2021/04/01 07:54:16;;;;;;;72.93;28.85;;;12.40;99.90;;;;;;4992705;28;20049;-67
2021/04/01 07:56:59;;;;;;;72.38;28.83;;;12.40;99.90;;;;;;4989018;28;20117;-67
2021/04/01 08:02:00;;;;;;;65.60;26.45;;;12.40;99.90;;;;;;4998137;28;20076;-65
2021/04/01 08:04:27;;;;;;;73.40;28.60;;;12.30;99.90;;;;;;4996544;28;20034;-66
2021/04/01 08:07:12;;;;;;;69.20;25.38;;;12.20;99.90;;;;;;4997141;28;20038;-66
2021/04/01 08:09:40;;;;;;;62.78;24.80;;;12.30;99.90;;;;;;4998392;28;20582;-67
2021/04/01 08:12:30;;;;;;;67.28;24.60;;;12.30;99.90;;;;;;5005019;28;20645;-66
2021/04/01 08:15:10;;;;;;;67.95;22.80;;;12.40;99.90;;;;;;4994549;28;20492;-67
2021/04/01 08:20:15;;;;;;;64.82;22.38;;;12.60;99.90;;;;;;5003943;28;20041;-66
2021/04/01 08:22:47;;;;;;;53.22;20.42;;;12.70;99.90;;;;;;5001822;28;20057;-66
2021/04/01 08:25:18;;;;;;;59.05;20.75;;;12.80;99.90;;;;;;5002782;28;20058;-67
2021/04/01 08:33:16;;;;;;;47.45;16.85;;;13.10;99.90;;;;;;4998195;28;20093;-67
2021/04/01 08:35:42;;;;;;;50.92;17.65;;;13.30;99.90;;;;;;5002849;28;20037;-64
2021/04/01 08:38:12;;;;;;;41.33;16.23;;;13.10;99.90;;;;;;5003298;28;20038;-67
2021/04/01 08:40:39;;;;;;;39.55;14.43;;;13.00;99.90;;;;;;5002001;28;20065;-67
2021/04/01 08:43:35;;;;;;;34.22;11.13;;;12.90;99.90;;;;;;5001295;28;20395;-66
2021/04/01 08:46:20;;;;;;;30.60;11.60;;;12.90;99.90;;;;;;4985036;28;20072;-66
2021/04/01 08:49:00;;;;;;;28.83;10.55;;;13.00;99.90;;;;;;4994739;28;20038;-66
2021/04/01 08:51:43;;;;;;;30.83;10.30;;;13.00;99.90;;;;;;4999453;28;20038;-66
2021/04/01 08:54:35;;;;;;;33.28;10.88;;;13.00;99.90;;;;;;5003560;28;20164;-66
2021/04/01 08:57:15;;;;;;;29.45;11.15;;;13.20;99.90;;;;;;4983447;28;20045;-66
2021/04/01 09:00:18;;;;;;;30.38;11.05;;;13.20;99.90;;;;;;5008146;28;20053;-66
2021/04/01 09:02:49;;;;;;;22.38;9.13;;;13.40;99.90;;;;;;5002320;28;20042;-66
2021/04/01 09:05:15;;;;;;;25.70;8.48;;;13.50;99.90;;;;;;5006366;28;20041;-66
2021/04/01 09:07:44;;;;;;;30.88;9.38;;;13.30;99.90;;;;;;5004669;28;20045;-67
2021/04/01 09:10:19;;;;;;;25.60;7.80;;;13.50;99.90;;;;;;5006566;28;20060;-66
2021/04/01 09:13:16;;;;;;;26.67;7.80;;;13.50;99.90;;;;;;4999187;28;20041;-67
2021/04/01 09:18:31;;;;;;;16.42;4.15;;;13.60;99.90;;;;;;5006120;28;20037;-67
2021/04/01 09:20:59;;;;;;;17.08;5.35;;;13.50;99.90;;;;;;5000166;28;20031;-64
2021/04/01 09:23:38;;;;;;;16.83;3.25;;;13.60;99.90;;;;;;5000586;28;20672;-66
2021/04/01 09:26:07;;;;;;;15.15;3.67;;;13.50;99.90;;;;;;4999442;28;20753;-65
2021/04/01 09:28:35;;;;;;;8.95;2.50;;;13.50;99.90;;;;;;5004742;28;20411;-64
2021/04/01 09:31:02;;;;;;;8.45;2.42;;;13.50;99.90;;;;;;5003277;28;20118;-67
2021/04/01 09:33:29;;;;;;;12.02;3.03;;;13.60;99.90;;;;;;5005557;28;20164;-66
2021/04/01 09:36:22;;;;;;;14.70;2.60;;;13.70;99.90;;;;;;5005967;28;20034;-66
2021/04/01 09:39:07;;;;;;;12.63;3.17;;;13.70;99.90;;;;;;4995580;28;20034;-67
2021/04/01 09:41:35;;;;;;;7.32;2.00;;;13.60;99.80;;;;;;4997424;28;20030;-66
2021/04/01 09:44:08;;;;;;;9.55;2.42;;;13.60;99.20;;;;;;5002063;28;20030;-64
2021/04/01 09:46:47;;;;;;;6.00;2.05;;;13.60;99.00;;;;;;5003691;28;20025;-66
2021/04/01 09:49:15;;;;;;;9.60;1.77;;;13.80;99.40;;;;;;5004496;28;20026;-66
2021/04/01 09:51:51;;;;;;;8.60;1.70;;;13.70;99.00;;;;;;5006355;28;20712;-66
2021/04/01 09:54:17;;;;;;;7.65;1.45;;;13.70;99.20;;;;;;4999785;28;20045;-65
2021/04/01 09:56:54;;;;;;;8.25;1.30;;;13.70;98.50;;;;;;5005376;28;20034;-65
2021/04/01 09:59:31;;;;;;;6.00;1.48;;;13.60;98.70;;;;;;4999687;28;20033;-66
2021/04/01 10:02:06;;;;;;;12.40;1.42;;;13.60;99.20;;;;;;5001683;28;20053;-65
2021/04/01 10:04:34;;;;;;;5.00;0.90;;;13.70;99.10;;;;;;5005429;28;20042;-66
2021/04/01 10:07:12;;;;;;;8.55;1.00;;;13.80;98.20;;;;;;5004698;28;20179;-65
2021/04/01 10:09:48;;;;;;;9.27;0.98;;;14.00;97.60;;;;;;5002759;28;20533;-65
2021/04/01 10:12:16;;;;;;;9.75;1.05;;;14.00;97.50;;;;;;4997468;28;20434;-65
2021/04/01 10:14:53;;;;;;;10.93;1.13;;;14.10;98.00;;;;;;4993717;28;20030;-66
2021/04/01 10:17:21;;;;;;;9.07;1.50;;;14.00;97.90;;;;;;4997314;28;20061;-66
2021/04/01 10:19:54;;;;;;;9.60;1.02;;;14.00;98.40;;;;;;5002937;28;20538;-66
2021/04/01 10:22:20;;;;;;;9.85;1.40;;;13.90;99.00;;;;;;4987069;28;20159;-66
2021/04/01 10:24:47;;;;;;;17.55;2.22;;;14.00;98.90;;;;;;4996879;28;20034;-66
2021/04/01 10:27:29;;;;;;;11.48;1.35;;;14.00;98.50;;;;;;4998987;28;20038;-65
2021/04/01 10:29:59;;;;;;;12.50;1.85;;;13.90;99.10;;;;;;4993124;28;20034;-66
2021/04/01 10:32:35;;;;;;;9.10;1.45;;;13.70;99.60;;;;;;5003848;28;20042;-67
2021/04/01 10:35:06;;;;;;;9.77;1.35;;;13.70;99.80;;;;;;4999304;28;20042;-65
2021/04/01 10:37:32;;;;;;;13.15;1.75;;;13.70;99.90;;;;;;4991225;28;20395;-65
2021/04/01 10:40:07;;;;;;;11.95;1.38;;;13.90;99.90;;;;;;4999503;28;20034;-66
2021/04/01 10:42:34;;;;;;;11.27;1.42;;;14.00;99.70;;;;;;4986586;28;20484;-67
2021/04/01 10:45:11;;;;;;;5.05;1.25;;;13.70;99.50;;;;;;5002075;28;20026;-64
2021/04/01 10:47:43;;;;;;;13.75;1.55;;;13.40;99.90;;;;;;4997472;28;20428;-64
2021/04/01 10:50:10;;;;;;;7.03;1.48;;;13.40;99.90;;;;;;4992615;28;20034;-64
2021/04/01 10:52:36;;;;;;;9.50;1.80;;;13.30;99.90;;;;;;4999281;28;20109;-64
2021/04/01 10:55:02;;;;;;;6.15;2.20;;;13.30;99.90;;;;;;5002755;28;20475;-64
2021/04/01 10:57:30;;;;;;;14.40;2.25;;;13.10;99.90;;;;;;5004372;28;20042;-65
2021/04/01 10:59:58;;;;;;;10.63;1.33;;;13.00;99.90;;;;;;4997946;28;20030;-65
2021/04/01 11:02:34;;;;;;;9.00;1.73;;;13.00;99.90;;;;;;4987646;28;20385;-65
2021/04/01 11:05:09;;;;;;;9.93;1.38;;;13.20;99.90;;;;;;4985103;28;20034;-66
2021/04/01 11:07:46;;;;;;;8.23;1.27;;;13.20;99.90;;;;;;4988714;28;20361;-65
2021/04/01 11:10:25;;;;;;;13.77;1.83;;;13.10;99.90;;;;;;4999769;28;20030;-65
2021/04/01 11:12:53;;;;;;;12.68;1.80;;;13.00;99.90;;;;;;4997578;28;20042;-64
2021/04/01 11:15:26;;;;;;;10.05;1.38;;;13.00;99.90;;;;;;4997957;28;20096;-66
2021/04/01 11:17:59;;;;;;;10.85;1.30;;;12.90;99.90;;;;;;5001513;28;20029;-64
2021/04/01 11:20:31;;;;;;;10.90;1.25;;;12.80;99.90;;;;;;5001629;28;20129;-65
2021/04/01 11:23:09;;;;;;;10.10;1.73;;;12.90;99.90;;;;;;4995108;28;20031;-65
2021/04/01 11:25:36;;;;;;;8.18;1.73;;;13.10;99.90;;;;;;4993343;28;20465;-66
2021/04/01 11:28:02;;;;;;;10.85;2.00;;;13.10;99.90;;;;;;5000677;28;20062;-65
2021/04/01 11:30:46;;;;;;;10.27;1.50;;;13.10;99.90;;;;;;5002311;28;20042;-64
2021/04/01 11:33:12;;;;;;;8.35;1.85;;;13.10;99.90;;;;;;4996751;28;20038;-65
2021/04/01 11:35:40;;;;;;;9.15;1.30;;;13.20;99.90;;;;;;5000082;28;20038;-65
2021/04/01 11:38:09;;;;;;;11.13;1.23;;;13.20;99.90;;;;;;5003903;28;20052;-65
2021/04/01 11:40:38;;;;;;;9.88;1.38;;;13.00;99.90;;;;;;5001589;28;20508;-64
2021/04/01 11:43:04;;;;;;;4.50;1.10;;;13.10;99.90;;;;;;5003182;28;20042;-64
2021/04/01 11:45:37;;;;;;;11.60;1.60;;;13.10;99.90;;;;;;5002919;28;20100;-64
2021/04/01 11:48:05;;;;;;;6.90;1.25;;;13.20;99.90;;;;;;5002943;28;20712;-65
2021/04/01 11:50:31;;;;;;;8.38;1.02;;;13.20;99.90;;;;;;5000595;28;20414;-63
2021/04/01 11:53:01;;;;;;;8.98;1.45;;;13.00;99.90;;;;;;5000625;28;20047;-64
2021/04/01 11:55:30;;;;;;;7.45;1.45;;;12.90;99.90;;;;;;5003398;28;20040;-65
2021/04/01 11:57:56;;;;;;;8.73;1.08;;;13.00;99.90;;;;;;4995787;28;20041;-66
2021/04/01 12:00:28;;;;;;;15.32;2.35;;;13.00;99.90;;;;;;5005470;28;20510;-65
2021/04/01 12:05:38;;;;;;;9.85;1.10;;;12.90;99.90;;;;;;5002754;28;20045;-64
2021/04/01 12:08:04;;;;;;;8.80;1.77;;;12.90;99.90;;;;;;5003381;28;20045;-64
2021/04/01 12:10:29;;;;;;;6.65;0.90;;;12.80;99.90;;;;;;5008128;28;20503;-64
2021/04/01 12:12:56;;;;;;;13.48;1.35;;;12.90;99.90;;;;;;5000815;28;20133;-65
2021/04/01 12:15:48;;;;;;;7.85;1.02;;;12.90;99.90;;;;;;4999270;28;20408;-65
2021/04/01 12:18:13;;;;;;;6.10;1.27;;;12.90;99.90;;;;;;5001987;28;20033;-64
2021/04/01 12:20:39;;;;;;;7.53;1.10;;;12.90;99.90;;;;;;4999151;28;20038;-64
2021/04/01 12:23:12;;;;;;;8.85;1.40;;;12.90;99.90;;;;;;5001917;28;20053;-65
2021/04/01 12:25:39;;;;;;;9.00;0.90;;;13.00;99.90;;;;;;5000247;28;20558;-64
2021/04/01 12:28:05;;;;;;;8.00;0.95;;;12.90;99.90;;;;;;5009566;28;20026;-65
2021/04/01 12:30:40;;;;;;;12.27;1.42;;;12.90;99.90;;;;;;4998051;28;20026;-64
2021/04/01 12:33:10;;;;;;;11.48;1.92;;;12.60;99.90;;;;;;5005349;28;20064;-65
2021/04/01 12:35:36;;;;;;;10.23;1.33;;;12.70;99.90;;;;;;5005422;28;20098;-66
2021/04/01 12:38:04;;;;;;;14.10;1.27;;;12.80;99.90;;;;;;5007934;28;20132;-64
2021/04/01 12:40:37;;;;;;;8.05;1.15;;;12.80;99.90;;;;;;5001983;28;20046;-66
2021/04/01 12:43:10;;;;;;;11.18;1.95;;;12.70;99.90;;;;;;5002879;28;20034;-64
2021/04/01 12:45:37;;;;;;;9.38;1.48;;;12.70;99.90;;;;;;4995174;28;20121;-65
2021/04/01 12:48:15;;;;;;;11.50;1.63;;;12.70;99.90;;;;;;5005693;28;20026;-66
2021/04/01 12:50:44;;;;;;;9.55;1.25;;;12.80;99.90;;;;;;5003963;28;20058;-65
2021/04/01 12:53:10;;;;;;;9.90;1.95;;;12.70;99.90;;;;;;5003260;28;20033;-65
2021/04/01 12:55:44;;;;;;;11.23;1.60;;;12.60;99.90;;;;;;5002727;28;20121;-64
2021/04/01 12:58:20;;;;;;;8.40;1.63;;;12.60;99.90;;;;;;5004924;28;20037;-65
2021/04/01 13:00:50;;;;;;;11.35;1.55;;;12.60;99.90;;;;;;5001838;28;20037;-64
2021/04/01 13:03:16;;;;;;;16.35;2.10;;;12.50;99.90;;;;;;5003751;28;20058;-65
2021/04/01 13:05:45;;;;;;;11.40;1.60;;;12.50;99.90;;;;;;5004853;28;20526;-64
2021/04/01 13:10:42;;;;;;;11.30;1.55;;;12.60;99.90;;;;;;4999647;28;20065;-65
2021/04/01 13:13:10;;;;;;;11.82;1.13;;;12.60;99.90;;;;;;5004221;28;20058;-65
2021/04/01 13:15:38;;;;;;;9.38;1.27;;;12.50;99.90;;;;;;5000382;28;20030;-65
2021/04/01 13:18:07;;;;;;;19.27;3.33;;;12.50;99.90;;;;;;5002601;28;20567;-66
2021/04/01 13:20:34;;;;;;;9.40;1.27;;;12.20;99.90;;;;;;4994834;28;20038;-64
2021/04/01 13:25:26;;;;;;;16.65;1.52;;;12.20;99.90;;;;;;5004564;28;20034;-64
2021/04/01 13:27:52;;;;;;;6.18;1.17;;;12.20;99.90;;;;;;5004585;28;20037;-64
2021/04/01 13:30:21;;;;;;;6.38;1.23;;;12.10;99.90;;;;;;4998461;28;20117;-65
2021/04/01 13:32:56;;;;;;;11.32;2.20;;;12.10;99.90;;;;;;5002467;28;20080;-65
2021/04/01 13:38:06;;;;;;;13.63;1.70;;;12.10;99.90;;;;;;5002226;28;20034;-64
2021/04/01 13:40:32;;;;;;;17.13;2.83;;;12.20;99.90;;;;;;4999236;28;20047;-65
2021/04/01 13:43:01;;;;;;;14.50;1.67;;;12.30;99.90;;;;;;5005139;28;20132;-64
2021/04/01 13:45:27;;;;;;;10.18;1.63;;;12.20;99.90;;;;;;5006805;28;20041;-64
2021/04/01 13:47:57;;;;;;;14.68;3.20;;;12.20;99.90;;;;;;5000742;28;20103;-64
2021/04/01 13:50:25;;;;;;;13.52;2.13;;;12.20;99.90;;;;;;5002563;28;20050;-64
2021/04/01 13:55:29;;;;;;;16.70;1.98;;;12.00;99.90;;;;;;5004867;28;20030;-66
2021/04/01 14:11:27;;;;;;;10.90;2.15;;;11.70;99.90;;;;;;4998927;28;20092;-63
2021/04/01 14:13:53;;;;;;;12.65;1.45;;;11.80;99.90;;;;;;5003100;28;20057;-64
2021/04/01 14:16:19;;;;;;;13.18;1.33;;;11.70;99.90;;;;;;5004854;28;20029;-65
2021/04/01 14:18:48;;;;;;;15.70;1.88;;;11.70;99.90;;;;;;5002682;28;20039;-65
2021/04/01 14:21:17;;;;;;;23.45;1.92;;;11.60;99.90;;;;;;5003559;28;20030;-64
2021/04/01 14:23:44;;;;;;;12.38;1.77;;;11.50;99.90;;;;;;5002758;28;20584;-64
2021/04/01 14:28:36;;;;;;;8.13;2.45;;;11.50;99.90;;;;;;5001638;28;20049;-65
2021/04/01 14:31:04;;;;;;;18.30;3.95;;;11.40;99.90;;;;;;5004231;28;20038;-66
2021/04/01 14:33:30;;;;;;;6.63;1.20;;;11.40;99.90;;;;;;5001453;28;20025;-65
2021/04/01 14:35:59;;;;;;;18.02;2.67;;;11.40;99.90;;;;;;5011770;28;20046;-64
2021/04/01 14:38:26;;;;;;;11.73;1.60;;;11.50;99.90;;;;;;5005115;28;20034;-65
2021/04/01 14:43:38;;;;;;;10.45;2.28;;;11.40;99.90;;;;;;5002551;28;20037;-64